Historyczne dane pomiarowe

Dodano dane terminowe – wersja testowa.

Dane z okresu 1951-2019

Wersja bazy: 1.34 [2019-03-16, lista zmian], aktualizacja planowana na 2019-04-15

Dane meteo z obszaru Polski uzyskane na podstawie danych udostępnionych przez Instytut Meteorologii i Gospodarki Wodnej – Państwowy Instytut Badawczy.

 

Wybierz Datę:    

       

TemperaturaWilgotnośćWiatrCiśnienieOpadyŚniegCzas trwania zjawisk
 Stacja t tx tn tng RH VA  wxwx mslp ppp RRR   cm mm wxwxwxwxwxwxwx
1987-08-14 12.0 15.8 7.2 5.3 90.0- 5.0 4.7---- 3.7------------
1987-08-13 12.1 18.6 8.5 7.2 86.3- 5.0 1.3---- 0.8------------
1987-08-12 10.6 16.7 5.4 3.3 84.5- 3.3 2.7---- 7.6------------
1987-08-11 12.5 16.6 9.5 7.0 73.0- 2.3 2.0---- 0.0------------
1987-08-10 13.3 17.3 11.5 10.2 88.0- 8.0 1.7---- 6.8------------
1987-08-09 14.5 21.6 8.6 6.1 79.0- 3.0 4.7---- 9.3------------
1987-08-08 12.9 19.3 4.4 2.7 77.0- 4.0 0.7---- 0.0------------
1987-08-07 9.1 11.6 4.1 1.7 90.5- 7.0 0.7---- 3.6------------
1987-08-06 10.1 13.5 8.0 7.8 86.5- 4.3 2.0---- 7.1------------
1987-08-05 10.9 16.1 5.8 4.9 77.8- 4.7 1.7---- 0.0------------
1987-08-04 14.6 16.7 13.7 12.4 62.5- 5.3 2.3---- 0.1------------
1987-08-03 14.5 18.5 10.3 9.2 82.8- 6.7 2.3---- 3.3------------
1987-08-02 12.9 17.3 9.4 9.0 87.0- 7.0 2.0---- 3.1------------
1987-08-01 14.2 16.6 11.9 11.0 89.0- 8.0 2.7---- 8.2------------
1987-07-31 14.3 19.9 12.8 12.4 90.3- 7.7 0.7---- 0.0------------
1987-07-30 16.2 22.6 7.4 6.3 75.5- 3.3 2.3---- 16.1------------
1987-07-29 13.0 15.7 10.3 9.0 82.5- 7.0 3.3---- 0.0------------
1987-07-28 12.2 13.4 8.6 8.0 82.3- 7.7 1.7---- 0.0------------
1987-07-27 10.8 15.8 8.7 6.4 81.0- 7.0 2.3---- 3.8------------
1987-07-26 12.5 18.8 9.7 9.0 82.0- 6.7 2.3---- 3.8------------
1987-07-25 17.8 22.1 14.1 12.2 75.0- 4.0 2.0---- 0.5------------
1987-07-24 17.6 24.3 11.5 9.8 84.5- 3.3 0.7---- 0.2------------
1987-07-23 18.0 25.1 9.7 9.2 83.8- 2.3 1.0---- 0.0------------
1987-07-22 16.5 23.5 9.4 8.5 79.0- 0.3 1.7---- 0.0------------
1987-07-21 14.6 19.3 8.6 7.6 94.3- 8.0 1.0---- 0.0------------
1987-07-20 17.3 21.5 14.3 14.0 81.3- 4.3 1.3---- 0.0------------
1987-07-19 17.7 21.5 15.8 15.0 87.0- 7.0 4.0---- 27.9------------
1987-07-18 19.2 24.6 13.6 11.7 87.5- 3.0 2.7---- 0.0------------
1987-07-17 21.9 28.4 17.2 15.2 75.3- 4.3 1.7---- 0.0------------
1987-07-16 20.1 27.2 12.1 9.8 75.5- 2.3 0.7---- 0.0------------
1987-07-15 16.5 25.1 5.9 4.3 76.8- 0.3 1.3---- 0.0------------
1987-07-14 14.5 20.5 6.5 4.1 74.8- 0.0 2.3---- 0.0------------
1987-07-13 16.0 21.5 11.8 11.0 78.0- 4.7 1.3---- 0.0------------
1987-07-12 19.1 26.6 14.8 10.4 75.5- 5.0 2.7---- 3.6------------
1987-07-11 16.0 23.2 6.3 4.7 66.0- 3.0 1.7---- 0.0------------
1987-07-10 13.5 18.5 6.4 4.7 67.3- 2.7 1.0---- 0.0------------
1987-07-09 15.5 22.2 13.6 12.7 98.5- 8.0 1.3---- 6.0------------
1987-07-08 20.5 24.4 17.0 14.8 64.8- 6.3 4.3---- 17.8------------
1987-07-07 17.4 24.8 6.9 5.4 68.5- 0.7 3.3---- 0.0------------
1987-07-06 15.4 23.3 5.7 5.0 71.3- 1.0 2.0---- 0.0------------
1987-07-05 14.6 18.5 8.4 5.4 70.0- 2.3 3.7---- 0.0------------
1987-07-04 15.8 19.9 9.7 8.4 81.5- 2.7 2.0---- 0.0------------
1987-07-03 17.7 21.7 11.6 10.2 67.3- 2.3 3.3---- 0.0------------
1987-07-02 16.5 18.7 14.1 13.8 85.0- 6.0 4.0---- 0.0------------
1987-07-01 21.3 28.9 16.8 14.6 81.0- 3.7 3.7---- 34.8------------
1987-06-30 22.0 27.5 13.5 11.6 80.5- 1.0 2.0---- 0.0------------
1987-06-29 20.2 26.4 14.8 12.8 81.3- 3.7 2.7---- 0.0------------
1987-06-28 17.5 24.1 10.1 8.6 80.3- 4.7 2.7---- 0.0------------
1987-06-27 15.2 18.8 13.5 12.2 97.3- 4.0 1.0---- 5.6------------
1987-06-26 14.5 22.2 6.6 4.9 83.3- 4.3 3.3---- 3.6------------
1987-06-25 13.5 17.3 11.7 10.0 76.3- 4.0 2.3---- 0.0------------
1987-06-24 14.9 19.4 9.8 9.4 76.3- 6.0 2.3---- 1.6------------
1987-06-23 13.8 18.4 9.7 9.0 83.5- 3.3 1.3---- 0.0------------
1987-06-22 11.9 14.5 10.3 9.8 98.0- 8.0 1.0---- 6.8------------
1987-06-21 14.4 18.6 10.5 9.0 90.8- 8.0 1.7---- 6.2------------
1987-06-20 14.4 18.5 9.7 6.3 76.0- 5.0 4.0---- 0.8------------
1987-06-19 11.0 16.1 6.7 5.9 75.5- 6.3 2.0---- 0.0------------
1987-06-18 8.3 12.9 6.2 5.0 93.0- 6.7 3.0---- 6.6------------
1987-06-17 10.8 14.9 7.4 6.1 67.3- 6.3 2.7---- 0.2------------
1987-06-16 10.7 18.1 8.7 8.0 86.8- 6.7 2.0---- 5.6------------
312.8 ms

 

Źródłem pochodzenia danych jest Instytut Meteorologii i Gospodarki Wodnej – Państwowy Instytut Badawczy. Dane Instytutu Meteorologii i Gospodarki Wodnej – Państwowego Instytutu Badawczego zostały przetworzone.

Dane źródłowe można odnaleźć na stronie https://dane.imgw.pl